Terminal Aerodrome Forecast
Issued by NWS Nashville, TN

Home | Current Version | Previous Version | Text Only | Print | Product List | Glossary On
Versions: 1 2 3 4 5 6 7 8 9 10 11 12 13 14
000
FTUS44 KOHX 201100
TAFCSV
TAF
KCSV 201123Z 2012/2112 00000KT P6SM BCFG SKC
      TEMPO 2012/2014 2SM BR
     FM201400 VRB04KT P6SM SCT250=

USA.gov is the U.S. government's official web portal to all federal, state and local government web resources and services.